sensor_id;sensor_type;location;lat;lon;timestamp;P1;durP1;ratioP1;P2;durP2;ratioP2
71253;SDS011;59019;47.638;18.966;2023-03-01T00:01:07;13.63;;;5.93;;
71253;SDS011;59019;47.638;18.966;2023-03-01T00:03:35;15.43;;;6.37;;
71253;SDS011;59019;47.638;18.966;2023-03-01T00:06:01;17.25;;;7.25;;
71253;SDS011;59019;47.638;18.966;2023-03-01T00:08:27;15.75;;;6.50;;
71253;SDS011;59019;47.638;18.966;2023-03-01T00:11:03;16.70;;;6.97;;
71253;SDS011;59019;47.638;18.966;2023-03-01T00:13:37;17.40;;;7.27;;
71253;SDS011;59019;47.638;18.966;2023-03-01T00:16:04;18.70;;;7.40;;
71253;SDS011;59019;47.638;18.966;2023-03-01T00:18:31;18.38;;;8.02;;
71253;SDS011;59019;47.638;18.966;2023-03-01T00:20:57;20.33;;;8.30;;
71253;SDS011;59019;47.638;18.966;2023-03-01T00:23:23;17.35;;;8.05;;
71253;SDS011;59019;47.638;18.966;2023-03-01T00:25:50;22.58;;;8.98;;
71253;SDS011;59019;47.638;18.966;2023-03-01T00:28:15;17.05;;;7.78;;
71253;SDS011;59019;47.638;18.966;2023-03-01T00:30:41;19.15;;;8.20;;
71253;SDS011;59019;47.638;18.966;2023-03-01T00:33:07;20.15;;;9.20;;
71253;SDS011;59019;47.638;18.966;2023-03-01T00:35:33;21.42;;;9.45;;
71253;SDS011;59019;47.638;18.966;2023-03-01T00:37:59;23.10;;;9.50;;
71253;SDS011;59019;47.638;18.966;2023-03-01T00:40:26;19.63;;;9.10;;
71253;SDS011;59019;47.638;18.966;2023-03-01T00:42:53;20.50;;;9.70;;
71253;SDS011;59019;47.638;18.966;2023-03-01T00:45:19;19.90;;;9.30;;
71253;SDS011;59019;47.638;18.966;2023-03-01T00:47:44;21.67;;;9.57;;
71253;SDS011;59019;47.638;18.966;2023-03-01T00:50:10;19.80;;;8.80;;
71253;SDS011;59019;47.638;18.966;2023-03-01T00:52:36;23.40;;;10.35;;
71253;SDS011;59019;47.638;18.966;2023-03-01T00:55:03;24.33;;;10.75;;
71253;SDS011;59019;47.638;18.966;2023-03-01T00:57:29;22.38;;;9.60;;
71253;SDS011;59019;47.638;18.966;2023-03-01T00:59:55;22.77;;;9.80;;
71253;SDS011;59019;47.638;18.966;2023-03-01T01:02:21;22.05;;;9.50;;
71253;SDS011;59019;47.638;18.966;2023-03-01T01:04:47;23.10;;;9.95;;
71253;SDS011;59019;47.638;18.966;2023-03-01T01:07:13;21.97;;;9.27;;
71253;SDS011;59019;47.638;18.966;2023-03-01T01:09:39;20.75;;;9.45;;
71253;SDS011;59019;47.638;18.966;2023-03-01T01:12:04;19.37;;;8.67;;
71253;SDS011;59019;47.638;18.966;2023-03-01T01:14:30;21.00;;;9.55;;
71253;SDS011;59019;47.638;18.966;2023-03-01T01:16:56;22.42;;;10.38;;
71253;SDS011;59019;47.638;18.966;2023-03-01T01:19:22;21.07;;;9.60;;
71253;SDS011;59019;47.638;18.966;2023-03-01T01:21:48;21.50;;;10.18;;
71253;SDS011;59019;47.638;18.966;2023-03-01T01:24:15;23.17;;;9.27;;
71253;SDS011;59019;47.638;18.966;2023-03-01T01:26:41;20.92;;;9.10;;
71253;SDS011;59019;47.638;18.966;2023-03-01T01:29:07;20.37;;;9.37;;
71253;SDS011;59019;47.638;18.966;2023-03-01T01:31:36;20.58;;;9.57;;
71253;SDS011;59019;47.638;18.966;2023-03-01T01:34:06;21.17;;;9.52;;
71253;SDS011;59019;47.638;18.966;2023-03-01T01:36:33;23.20;;;10.18;;
71253;SDS011;59019;47.638;18.966;2023-03-01T01:38:59;23.27;;;9.35;;
71253;SDS011;59019;47.638;18.966;2023-03-01T01:41:27;24.63;;;9.80;;
71253;SDS011;59019;47.638;18.966;2023-03-01T01:44:11;22.77;;;9.35;;
71253;SDS011;59019;47.638;18.966;2023-03-01T01:51:37;22.52;;;9.35;;
71253;SDS011;59019;47.638;18.966;2023-03-01T01:54:12;22.40;;;8.67;;
71253;SDS011;59019;47.638;18.966;2023-03-01T01:56:42;19.55;;;8.85;;
71253;SDS011;59019;47.638;18.966;2023-03-01T01:59:13;21.42;;;9.07;;
71253;SDS011;59019;47.638;18.966;2023-03-01T02:01:39;18.70;;;8.80;;
71253;SDS011;59019;47.638;18.966;2023-03-01T02:04:05;19.40;;;8.70;;
71253;SDS011;59019;47.638;18.966;2023-03-01T02:06:37;20.50;;;9.43;;
71253;SDS011;59019;47.638;18.966;2023-03-01T02:09:08;18.88;;;8.68;;
71253;SDS011;59019;47.638;18.966;2023-03-01T02:11:38;20.85;;;9.48;;
71253;SDS011;59019;47.638;18.966;2023-03-01T02:14:04;18.27;;;8.73;;
71253;SDS011;59019;47.638;18.966;2023-03-01T02:16:30;22.23;;;10.27;;
71253;SDS011;59019;47.638;18.966;2023-03-01T02:18:56;20.52;;;8.93;;
71253;SDS011;59019;47.638;18.966;2023-03-01T02:24:01;22.17;;;8.83;;
71253;SDS011;59019;47.638;18.966;2023-03-01T02:26:47;18.77;;;8.38;;
71253;SDS011;59019;47.638;18.966;2023-03-01T02:29:16;18.65;;;7.60;;
71253;SDS011;59019;47.638;18.966;2023-03-01T02:31:42;18.50;;;7.57;;
71253;SDS011;59019;47.638;18.966;2023-03-01T02:34:12;17.30;;;7.47;;
71253;SDS011;59019;47.638;18.966;2023-03-01T02:36:49;17.30;;;7.32;;
71253;SDS011;59019;47.638;18.966;2023-03-01T02:39:22;17.67;;;7.60;;
71253;SDS011;59019;47.638;18.966;2023-03-01T02:41:52;17.60;;;7.23;;
71253;SDS011;59019;47.638;18.966;2023-03-01T02:44:19;14.95;;;6.38;;
71253;SDS011;59019;47.638;18.966;2023-03-01T02:46:47;16.70;;;6.45;;
71253;SDS011;59019;47.638;18.966;2023-03-01T02:49:26;14.40;;;6.40;;
71253;SDS011;59019;47.638;18.966;2023-03-01T02:55:25;14.90;;;6.27;;
71253;SDS011;59019;47.638;18.966;2023-03-01T02:57:49;15.55;;;7.15;;
71253;SDS011;59019;47.638;18.966;2023-03-01T03:00:21;16.65;;;6.72;;
71253;SDS011;59019;47.638;18.966;2023-03-01T03:02:52;17.02;;;7.22;;
71253;SDS011;59019;47.638;18.966;2023-03-01T03:05:23;15.88;;;6.38;;
71253;SDS011;59019;47.638;18.966;2023-03-01T03:07:51;14.70;;;6.17;;
71253;SDS011;59019;47.638;18.966;2023-03-01T03:10:18;14.48;;;6.55;;
71253;SDS011;59019;47.638;18.966;2023-03-01T03:12:50;15.45;;;6.22;;
71253;SDS011;59019;47.638;18.966;2023-03-01T03:15:17;14.73;;;5.95;;
71253;SDS011;59019;47.638;18.966;2023-03-01T03:17:43;15.20;;;6.47;;
71253;SDS011;59019;47.638;18.966;2023-03-01T03:20:10;14.88;;;6.32;;
71253;SDS011;59019;47.638;18.966;2023-03-01T03:22:41;15.38;;;6.43;;
71253;SDS011;59019;47.638;18.966;2023-03-01T03:25:09;15.77;;;6.72;;
71253;SDS011;59019;47.638;18.966;2023-03-01T03:27:36;16.48;;;6.05;;
71253;SDS011;59019;47.638;18.966;2023-03-01T03:30:06;15.23;;;5.83;;
71253;SDS011;59019;47.638;18.966;2023-03-01T03:32:37;14.48;;;5.78;;
71253;SDS011;59019;47.638;18.966;2023-03-01T03:35:08;13.02;;;6.15;;
71253;SDS011;59019;47.638;18.966;2023-03-01T03:37:36;15.88;;;6.40;;
71253;SDS011;59019;47.638;18.966;2023-03-01T03:40:23;15.07;;;6.40;;
71253;SDS011;59019;47.638;18.966;2023-03-01T03:42:49;14.27;;;5.90;;
71253;SDS011;59019;47.638;18.966;2023-03-01T03:45:15;13.85;;;5.88;;
71253;SDS011;59019;47.638;18.966;2023-03-01T03:47:43;13.97;;;5.80;;
71253;SDS011;59019;47.638;18.966;2023-03-01T03:50:09;14.95;;;6.20;;
71253;SDS011;59019;47.638;18.966;2023-03-01T03:52:39;15.45;;;5.88;;
71253;SDS011;59019;47.638;18.966;2023-03-01T03:55:05;13.18;;;5.53;;
71253;SDS011;59019;47.638;18.966;2023-03-01T03:57:36;14.55;;;6.32;;
71253;SDS011;59019;47.638;18.966;2023-03-01T04:00:02;14.63;;;6.37;;
71253;SDS011;59019;47.638;18.966;2023-03-01T04:02:40;14.55;;;6.15;;
71253;SDS011;59019;47.638;18.966;2023-03-01T04:05:07;13.73;;;5.97;;
71253;SDS011;59019;47.638;18.966;2023-03-01T04:07:34;13.25;;;5.70;;
71253;SDS011;59019;47.638;18.966;2023-03-01T04:10:02;11.35;;;5.28;;
71253;SDS011;59019;47.638;18.966;2023-03-01T04:12:34;12.63;;;5.47;;
71253;SDS011;59019;47.638;18.966;2023-03-01T04:15:00;13.18;;;5.50;;
71253;SDS011;59019;47.638;18.966;2023-03-01T04:17:26;13.10;;;5.60;;
71253;SDS011;59019;47.638;18.966;2023-03-01T04:19:51;12.63;;;5.13;;
71253;SDS011;59019;47.638;18.966;2023-03-01T04:22:18;13.77;;;5.40;;
71253;SDS011;59019;47.638;18.966;2023-03-01T04:24:44;15.00;;;6.05;;
71253;SDS011;59019;47.638;18.966;2023-03-01T04:27:10;14.40;;;5.18;;
71253;SDS011;59019;47.638;18.966;2023-03-01T04:29:36;14.73;;;5.70;;
71253;SDS011;59019;47.638;18.966;2023-03-01T04:32:02;12.57;;;4.65;;
71253;SDS011;59019;47.638;18.966;2023-03-01T04:34:28;14.55;;;5.60;;
71253;SDS011;59019;47.638;18.966;2023-03-01T04:36:54;12.90;;;4.93;;
71253;SDS011;59019;47.638;18.966;2023-03-01T04:39:20;12.02;;;5.07;;
71253;SDS011;59019;47.638;18.966;2023-03-01T04:41:46;13.80;;;5.95;;
71253;SDS011;59019;47.638;18.966;2023-03-01T04:44:12;14.67;;;5.90;;
71253;SDS011;59019;47.638;18.966;2023-03-01T04:46:37;13.15;;;5.70;;
71253;SDS011;59019;47.638;18.966;2023-03-01T04:49:03;13.63;;;5.80;;
71253;SDS011;59019;47.638;18.966;2023-03-01T04:51:30;15.20;;;6.18;;
71253;SDS011;59019;47.638;18.966;2023-03-01T04:53:57;12.15;;;5.22;;
71253;SDS011;59019;47.638;18.966;2023-03-01T04:56:22;15.40;;;6.00;;
71253;SDS011;59019;47.638;18.966;2023-03-01T04:58:48;16.57;;;5.83;;
71253;SDS011;59019;47.638;18.966;2023-03-01T05:01:15;12.32;;;5.68;;
71253;SDS011;59019;47.638;18.966;2023-03-01T05:03:44;14.63;;;5.93;;
71253;SDS011;59019;47.638;18.966;2023-03-01T05:06:10;14.98;;;6.20;;
71253;SDS011;59019;47.638;18.966;2023-03-01T05:08:37;12.97;;;5.60;;
71253;SDS011;59019;47.638;18.966;2023-03-01T05:11:04;15.05;;;6.55;;
71253;SDS011;59019;47.638;18.966;2023-03-01T05:13:30;12.23;;;5.63;;
71253;SDS011;59019;47.638;18.966;2023-03-01T05:15:57;15.30;;;6.60;;
71253;SDS011;59019;47.638;18.966;2023-03-01T05:18:26;15.38;;;6.65;;
71253;SDS011;59019;47.638;18.966;2023-03-01T05:21:02;14.80;;;6.83;;
71253;SDS011;59019;47.638;18.966;2023-03-01T05:23:30;14.23;;;6.70;;
71253;SDS011;59019;47.638;18.966;2023-03-01T05:26:00;15.25;;;6.38;;
71253;SDS011;59019;47.638;18.966;2023-03-01T05:28:27;17.70;;;6.40;;
71253;SDS011;59019;47.638;18.966;2023-03-01T05:30:56;16.52;;;6.75;;
71253;SDS011;59019;47.638;18.966;2023-03-01T05:33:22;17.37;;;7.23;;
71253;SDS011;59019;47.638;18.966;2023-03-01T05:35:49;15.43;;;5.95;;
71253;SDS011;59019;47.638;18.966;2023-03-01T05:38:17;17.33;;;7.32;;
71253;SDS011;59019;47.638;18.966;2023-03-01T05:40:43;14.10;;;6.30;;
71253;SDS011;59019;47.638;18.966;2023-03-01T05:43:10;14.02;;;6.40;;
71253;SDS011;59019;47.638;18.966;2023-03-01T05:45:37;18.27;;;7.20;;
71253;SDS011;59019;47.638;18.966;2023-03-01T05:48:03;18.05;;;8.27;;
71253;SDS011;59019;47.638;18.966;2023-03-01T05:50:31;18.73;;;8.00;;
71253;SDS011;59019;47.638;18.966;2023-03-01T05:55:25;16.55;;;7.10;;
71253;SDS011;59019;47.638;18.966;2023-03-01T05:57:52;14.73;;;7.47;;
71253;SDS011;59019;47.638;18.966;2023-03-01T06:00:18;16.45;;;7.00;;
71253;SDS011;59019;47.638;18.966;2023-03-01T06:02:47;14.77;;;6.60;;
71253;SDS011;59019;47.638;18.966;2023-03-01T06:05:13;17.25;;;6.85;;
71253;SDS011;59019;47.638;18.966;2023-03-01T06:07:39;16.20;;;6.72;;
71253;SDS011;59019;47.638;18.966;2023-03-01T06:10:05;14.88;;;7.05;;
71253;SDS011;59019;47.638;18.966;2023-03-01T06:12:32;16.87;;;7.83;;
71253;SDS011;59019;47.638;18.966;2023-03-01T06:15:00;17.33;;;8.20;;
71253;SDS011;59019;47.638;18.966;2023-03-01T06:17:26;17.88;;;8.35;;
71253;SDS011;59019;47.638;18.966;2023-03-01T06:19:54;20.52;;;8.57;;
71253;SDS011;59019;47.638;18.966;2023-03-01T06:22:20;14.87;;;7.57;;
71253;SDS011;59019;47.638;18.966;2023-03-01T06:24:45;19.93;;;9.23;;
71253;SDS011;59019;47.638;18.966;2023-03-01T06:27:11;18.50;;;8.65;;
71253;SDS011;59019;47.638;18.966;2023-03-01T06:29:36;17.13;;;8.27;;
71253;SDS011;59019;47.638;18.966;2023-03-01T06:32:03;17.50;;;8.18;;
71253;SDS011;59019;47.638;18.966;2023-03-01T06:34:29;17.17;;;7.03;;
71253;SDS011;59019;47.638;18.966;2023-03-01T06:36:55;18.20;;;7.30;;
71253;SDS011;59019;47.638;18.966;2023-03-01T06:39:20;15.52;;;6.72;;
71253;SDS011;59019;47.638;18.966;2023-03-01T06:41:47;15.00;;;6.50;;
71253;SDS011;59019;47.638;18.966;2023-03-01T06:44:14;16.75;;;6.88;;
71253;SDS011;59019;47.638;18.966;2023-03-01T06:46:40;13.00;;;6.00;;
71253;SDS011;59019;47.638;18.966;2023-03-01T06:49:05;14.98;;;6.47;;
71253;SDS011;59019;47.638;18.966;2023-03-01T06:51:34;17.27;;;8.27;;
71253;SDS011;59019;47.638;18.966;2023-03-01T06:54:04;19.33;;;8.70;;
71253;SDS011;59019;47.638;18.966;2023-03-01T06:56:30;21.38;;;9.77;;
71253;SDS011;59019;47.638;18.966;2023-03-01T06:58:57;20.92;;;9.80;;
71253;SDS011;59019;47.638;18.966;2023-03-01T07:01:22;16.47;;;8.13;;
71253;SDS011;59019;47.638;18.966;2023-03-01T07:03:48;18.92;;;8.00;;
71253;SDS011;59019;47.638;18.966;2023-03-01T07:06:14;18.53;;;8.10;;
71253;SDS011;59019;47.638;18.966;2023-03-01T07:08:40;18.63;;;8.50;;
71253;SDS011;59019;47.638;18.966;2023-03-01T07:11:05;19.27;;;8.43;;
71253;SDS011;59019;47.638;18.966;2023-03-01T07:13:33;16.73;;;8.00;;
71253;SDS011;59019;47.638;18.966;2023-03-01T07:15:58;18.15;;;7.75;;
71253;SDS011;59019;47.638;18.966;2023-03-01T07:18:24;20.87;;;8.67;;
71253;SDS011;59019;47.638;18.966;2023-03-01T07:20:49;17.35;;;7.90;;
71253;SDS011;59019;47.638;18.966;2023-03-01T07:23:15;17.57;;;7.10;;
71253;SDS011;59019;47.638;18.966;2023-03-01T07:25:41;16.55;;;6.78;;
71253;SDS011;59019;47.638;18.966;2023-03-01T07:28:06;18.67;;;7.57;;
71253;SDS011;59019;47.638;18.966;2023-03-01T07:30:32;19.23;;;7.83;;
71253;SDS011;59019;47.638;18.966;2023-03-01T07:32:58;18.67;;;8.20;;
71253;SDS011;59019;47.638;18.966;2023-03-01T07:35:24;22.95;;;8.73;;
71253;SDS011;59019;47.638;18.966;2023-03-01T07:37:51;18.55;;;8.73;;
71253;SDS011;59019;47.638;18.966;2023-03-01T07:40:17;16.50;;;7.70;;
71253;SDS011;59019;47.638;18.966;2023-03-01T07:42:43;15.43;;;7.68;;
71253;SDS011;59019;47.638;18.966;2023-03-01T07:45:08;17.37;;;7.03;;
71253;SDS011;59019;47.638;18.966;2023-03-01T07:47:35;16.73;;;7.75;;
71253;SDS011;59019;47.638;18.966;2023-03-01T07:50:01;15.65;;;7.32;;
71253;SDS011;59019;47.638;18.966;2023-03-01T07:52:28;15.80;;;6.57;;
71253;SDS011;59019;47.638;18.966;2023-03-01T07:54:54;17.80;;;6.73;;
71253;SDS011;59019;47.638;18.966;2023-03-01T07:57:20;14.60;;;6.40;;
71253;SDS011;59019;47.638;18.966;2023-03-01T07:59:45;14.33;;;6.57;;
71253;SDS011;59019;47.638;18.966;2023-03-01T08:02:11;14.03;;;5.77;;
71253;SDS011;59019;47.638;18.966;2023-03-01T08:04:36;16.35;;;6.88;;
71253;SDS011;59019;47.638;18.966;2023-03-01T08:07:04;13.10;;;6.17;;
71253;SDS011;59019;47.638;18.966;2023-03-01T08:09:30;14.80;;;6.43;;
71253;SDS011;59019;47.638;18.966;2023-03-01T08:11:56;15.20;;;6.50;;
71253;SDS011;59019;47.638;18.966;2023-03-01T08:14:24;13.07;;;5.83;;
71253;SDS011;59019;47.638;18.966;2023-03-01T08:16:50;12.60;;;6.03;;
71253;SDS011;59019;47.638;18.966;2023-03-01T08:19:16;12.27;;;6.00;;
71253;SDS011;59019;47.638;18.966;2023-03-01T08:21:42;14.32;;;5.68;;
71253;SDS011;59019;47.638;18.966;2023-03-01T08:24:07;13.50;;;5.70;;
71253;SDS011;59019;47.638;18.966;2023-03-01T08:26:35;14.32;;;5.55;;
71253;SDS011;59019;47.638;18.966;2023-03-01T08:29:01;10.70;;;5.13;;
71253;SDS011;59019;47.638;18.966;2023-03-01T08:31:29;11.48;;;5.13;;
71253;SDS011;59019;47.638;18.966;2023-03-01T08:34:01;12.55;;;5.25;;
71253;SDS011;59019;47.638;18.966;2023-03-01T08:36:29;11.35;;;5.00;;
71253;SDS011;59019;47.638;18.966;2023-03-01T08:38:56;12.38;;;5.10;;
71253;SDS011;59019;47.638;18.966;2023-03-01T08:41:22;11.53;;;5.20;;
71253;SDS011;59019;47.638;18.966;2023-03-01T08:43:48;10.82;;;4.78;;
71253;SDS011;59019;47.638;18.966;2023-03-01T08:46:14;12.60;;;5.15;;
71253;SDS011;59019;47.638;18.966;2023-03-01T08:48:39;13.33;;;7.70;;
71253;SDS011;59019;47.638;18.966;2023-03-01T08:51:15;11.00;;;4.78;;
71253;SDS011;59019;47.638;18.966;2023-03-01T08:53:42;11.07;;;5.00;;
71253;SDS011;59019;47.638;18.966;2023-03-01T08:56:08;12.05;;;4.75;;
71253;SDS011;59019;47.638;18.966;2023-03-01T08:58:36;11.15;;;5.47;;
71253;SDS011;59019;47.638;18.966;2023-03-01T09:01:12;12.60;;;4.77;;
71253;SDS011;59019;47.638;18.966;2023-03-01T09:03:40;9.65;;;4.75;;
71253;SDS011;59019;47.638;18.966;2023-03-01T09:06:06;9.13;;;4.20;;
71253;SDS011;59019;47.638;18.966;2023-03-01T09:08:37;10.57;;;4.32;;
71253;SDS011;59019;47.638;18.966;2023-03-01T09:11:04;11.27;;;5.70;;
71253;SDS011;59019;47.638;18.966;2023-03-01T09:13:32;10.53;;;5.57;;
71253;SDS011;59019;47.638;18.966;2023-03-01T09:15:59;10.90;;;4.40;;
71253;SDS011;59019;47.638;18.966;2023-03-01T09:18:26;8.63;;;3.92;;
71253;SDS011;59019;47.638;18.966;2023-03-01T09:20:52;8.10;;;3.72;;
71253;SDS011;59019;47.638;18.966;2023-03-01T09:23:20;9.30;;;3.97;;
71253;SDS011;59019;47.638;18.966;2023-03-01T09:25:46;7.90;;;4.00;;
71253;SDS011;59019;47.638;18.966;2023-03-01T09:28:11;8.90;;;4.35;;
71253;SDS011;59019;47.638;18.966;2023-03-01T09:30:37;10.43;;;4.70;;
71253;SDS011;59019;47.638;18.966;2023-03-01T09:33:03;11.27;;;3.97;;
71253;SDS011;59019;47.638;18.966;2023-03-01T09:35:28;9.85;;;3.67;;
71253;SDS011;59019;47.638;18.966;2023-03-01T09:37:53;7.93;;;4.20;;
71253;SDS011;59019;47.638;18.966;2023-03-01T09:40:20;9.07;;;4.23;;
71253;SDS011;59019;47.638;18.966;2023-03-01T09:42:52;9.57;;;4.10;;
71253;SDS011;59019;47.638;18.966;2023-03-01T09:45:26;7.10;;;3.65;;
71253;SDS011;59019;47.638;18.966;2023-03-01T09:47:58;11.47;;;5.50;;
71253;SDS011;59019;47.638;18.966;2023-03-01T09:50:23;14.65;;;5.75;;
71253;SDS011;59019;47.638;18.966;2023-03-01T09:53:03;7.68;;;3.50;;
71253;SDS011;59019;47.638;18.966;2023-03-01T09:56:05;7.88;;;3.38;;
71253;SDS011;59019;47.638;18.966;2023-03-01T10:09:36;9.70;;;4.78;;
71253;SDS011;59019;47.638;18.966;2023-03-01T10:12:13;10.03;;;5.00;;
71253;SDS011;59019;47.638;18.966;2023-03-01T10:17:48;9.98;;;4.57;;
71253;SDS011;59019;47.638;18.966;2023-03-01T10:20:24;13.57;;;5.63;;
71253;SDS011;59019;47.638;18.966;2023-03-01T10:22:52;10.60;;;5.50;;
71253;SDS011;59019;47.638;18.966;2023-03-01T10:28:10;11.77;;;5.43;;
71253;SDS011;59019;47.638;18.966;2023-03-01T10:30:41;10.88;;;5.82;;
71253;SDS011;59019;47.638;18.966;2023-03-01T10:33:25;10.02;;;5.35;;
71253;SDS011;59019;47.638;18.966;2023-03-01T10:35:53;9.30;;;4.93;;
71253;SDS011;59019;47.638;18.966;2023-03-01T10:38:19;9.43;;;5.13;;
71253;SDS011;59019;47.638;18.966;2023-03-01T10:40:56;11.73;;;4.88;;
71253;SDS011;59019;47.638;18.966;2023-03-01T10:43:23;10.35;;;4.95;;
71253;SDS011;59019;47.638;18.966;2023-03-01T10:45:53;12.47;;;5.17;;
71253;SDS011;59019;47.638;18.966;2023-03-01T10:48:20;10.23;;;4.95;;
71253;SDS011;59019;47.638;18.966;2023-03-01T10:56:10;10.63;;;5.13;;
71253;SDS011;59019;47.638;18.966;2023-03-01T10:58:39;10.65;;;5.43;;
71253;SDS011;59019;47.638;18.966;2023-03-01T11:01:26;9.10;;;4.88;;
71253;SDS011;59019;47.638;18.966;2023-03-01T11:06:35;10.87;;;4.60;;
71253;SDS011;59019;47.638;18.966;2023-03-01T11:09:19;10.75;;;5.35;;
71253;SDS011;59019;47.638;18.966;2023-03-01T11:11:46;9.82;;;4.90;;
71253;SDS011;59019;47.638;18.966;2023-03-01T11:14:21;10.27;;;4.75;;
71253;SDS011;59019;47.638;18.966;2023-03-01T11:16:58;9.23;;;4.43;;
71253;SDS011;59019;47.638;18.966;2023-03-01T11:19:31;10.27;;;4.10;;
71253;SDS011;59019;47.638;18.966;2023-03-01T11:24:50;8.98;;;4.35;;
71253;SDS011;59019;47.638;18.966;2023-03-01T11:27:18;9.35;;;4.75;;
71253;SDS011;59019;47.638;18.966;2023-03-01T11:29:50;11.20;;;6.07;;
71253;SDS011;59019;47.638;18.966;2023-03-01T11:32:40;11.57;;;5.20;;
71253;SDS011;59019;47.638;18.966;2023-03-01T11:35:23;10.32;;;5.20;;
71253;SDS011;59019;47.638;18.966;2023-03-01T11:43:37;9.15;;;4.70;;
71253;SDS011;59019;47.638;18.966;2023-03-01T11:51:22;9.35;;;5.20;;
71253;SDS011;59019;47.638;18.966;2023-03-01T11:56:46;10.82;;;5.13;;
71253;SDS011;59019;47.638;18.966;2023-03-01T12:02:27;10.05;;;5.38;;
71253;SDS011;59019;47.638;18.966;2023-03-01T12:10:27;10.68;;;5.15;;
71253;SDS011;59019;47.638;18.966;2023-03-01T12:13:18;10.93;;;5.40;;
71253;SDS011;59019;47.638;18.966;2023-03-01T12:16:07;10.55;;;5.15;;
71253;SDS011;59019;47.638;18.966;2023-03-01T12:19:02;9.93;;;4.75;;
71253;SDS011;59019;47.638;18.966;2023-03-01T12:51:31;10.25;;;5.47;;
71253;SDS011;59019;47.638;18.966;2023-03-01T12:54:00;9.20;;;4.97;;
71253;SDS011;59019;47.638;18.966;2023-03-01T12:56:32;10.63;;;4.90;;
71253;SDS011;59019;47.638;18.966;2023-03-01T13:18:02;7.85;;;3.80;;
71253;SDS011;59019;47.638;18.966;2023-03-01T13:20:44;8.27;;;3.87;;
71253;SDS011;59019;47.638;18.966;2023-03-01T13:23:13;6.97;;;3.70;;
71253;SDS011;59019;47.638;18.966;2023-03-01T13:26:00;6.85;;;3.45;;
71253;SDS011;59019;47.638;18.966;2023-03-01T13:31:06;8.45;;;3.55;;
71253;SDS011;59019;47.638;18.966;2023-03-01T13:33:40;10.10;;;4.27;;
71253;SDS011;59019;47.638;18.966;2023-03-01T13:36:09;7.93;;;3.60;;
71253;SDS011;59019;47.638;18.966;2023-03-01T13:41:16;7.72;;;3.92;;
71253;SDS011;59019;47.638;18.966;2023-03-01T13:44:01;10.00;;;4.53;;
71253;SDS011;59019;47.638;18.966;2023-03-01T13:46:36;9.27;;;3.60;;
71253;SDS011;59019;47.638;18.966;2023-03-01T13:49:03;7.82;;;3.92;;
71253;SDS011;59019;47.638;18.966;2023-03-01T13:51:28;8.07;;;3.40;;
71253;SDS011;59019;47.638;18.966;2023-03-01T13:53:55;8.50;;;3.60;;
71253;SDS011;59019;47.638;18.966;2023-03-01T13:56:26;8.27;;;3.42;;
71253;SDS011;59019;47.638;18.966;2023-03-01T14:01:37;8.93;;;3.58;;
71253;SDS011;59019;47.638;18.966;2023-03-01T14:04:03;9.73;;;3.87;;
71253;SDS011;59019;47.638;18.966;2023-03-01T14:06:46;7.85;;;3.53;;
71253;SDS011;59019;47.638;18.966;2023-03-01T14:17:44;9.02;;;4.03;;
71253;SDS011;59019;47.638;18.966;2023-03-01T14:22:46;9.43;;;3.70;;
71253;SDS011;59019;47.638;18.966;2023-03-01T14:30:34;15.00;;;4.78;;
71253;SDS011;59019;47.638;18.966;2023-03-01T14:33:15;18.88;;;6.95;;
71253;SDS011;59019;47.638;18.966;2023-03-01T14:36:10;36.80;;;17.27;;
71253;SDS011;59019;47.638;18.966;2023-03-01T14:38:44;11.07;;;5.10;;
71253;SDS011;59019;47.638;18.966;2023-03-01T14:41:21;7.78;;;3.70;;
71253;SDS011;59019;47.638;18.966;2023-03-01T14:43:52;9.27;;;4.20;;
71253;SDS011;59019;47.638;18.966;2023-03-01T14:46:39;8.30;;;3.60;;
71253;SDS011;59019;47.638;18.966;2023-03-01T14:49:10;6.82;;;3.60;;
71253;SDS011;59019;47.638;18.966;2023-03-01T14:51:39;8.77;;;3.60;;
71253;SDS011;59019;47.638;18.966;2023-03-01T14:54:18;9.85;;;3.58;;
71253;SDS011;59019;47.638;18.966;2023-03-01T14:57:05;9.52;;;3.90;;
71253;SDS011;59019;47.638;18.966;2023-03-01T14:59:32;6.78;;;3.40;;
71253;SDS011;59019;47.638;18.966;2023-03-01T15:02:01;10.90;;;4.32;;
71253;SDS011;59019;47.638;18.966;2023-03-01T15:04:27;8.87;;;3.70;;
71253;SDS011;59019;47.638;18.966;2023-03-01T15:06:54;10.95;;;4.10;;
71253;SDS011;59019;47.638;18.966;2023-03-01T15:09:29;8.88;;;3.67;;
71253;SDS011;59019;47.638;18.966;2023-03-01T15:11:57;8.13;;;3.35;;
71253;SDS011;59019;47.638;18.966;2023-03-01T15:19:57;8.38;;;3.25;;
71253;SDS011;59019;47.638;18.966;2023-03-01T15:22:24;7.40;;;3.17;;
71253;SDS011;59019;47.638;18.966;2023-03-01T15:24:51;9.98;;;3.97;;
71253;SDS011;59019;47.638;18.966;2023-03-01T15:27:18;6.97;;;3.13;;
71253;SDS011;59019;47.638;18.966;2023-03-01T15:29:59;8.15;;;3.42;;
71253;SDS011;59019;47.638;18.966;2023-03-01T15:32:34;7.88;;;3.60;;
71253;SDS011;59019;47.638;18.966;2023-03-01T15:38:26;7.47;;;3.50;;
71253;SDS011;59019;47.638;18.966;2023-03-01T15:40:54;8.75;;;4.20;;
71253;SDS011;59019;47.638;18.966;2023-03-01T15:43:40;7.93;;;4.38;;
71253;SDS011;59019;47.638;18.966;2023-03-01T15:46:11;10.27;;;4.00;;
71253;SDS011;59019;47.638;18.966;2023-03-01T15:48:50;10.23;;;3.50;;
71253;SDS011;59019;47.638;18.966;2023-03-01T15:51:21;8.48;;;4.00;;
71253;SDS011;59019;47.638;18.966;2023-03-01T15:53:53;10.07;;;5.13;;
71253;SDS011;59019;47.638;18.966;2023-03-01T15:56:19;8.00;;;4.15;;
71253;SDS011;59019;47.638;18.966;2023-03-01T15:58:44;7.17;;;3.47;;
71253;SDS011;59019;47.638;18.966;2023-03-01T16:01:14;9.90;;;3.35;;
71253;SDS011;59019;47.638;18.966;2023-03-01T16:03:41;9.60;;;4.50;;
71253;SDS011;59019;47.638;18.966;2023-03-01T16:06:11;8.45;;;4.43;;
71253;SDS011;59019;47.638;18.966;2023-03-01T16:08:37;9.70;;;3.90;;
71253;SDS011;59019;47.638;18.966;2023-03-01T16:11:09;8.90;;;3.85;;
71253;SDS011;59019;47.638;18.966;2023-03-01T16:13:40;10.38;;;5.35;;
71253;SDS011;59019;47.638;18.966;2023-03-01T16:16:06;9.70;;;4.40;;
71253;SDS011;59019;47.638;18.966;2023-03-01T16:18:37;12.05;;;5.15;;
71253;SDS011;59019;47.638;18.966;2023-03-01T16:21:03;11.75;;;7.38;;
71253;SDS011;59019;47.638;18.966;2023-03-01T16:23:30;12.38;;;6.45;;
71253;SDS011;59019;47.638;18.966;2023-03-01T16:25:58;11.30;;;3.67;;
71253;SDS011;59019;47.638;18.966;2023-03-01T16:28:25;6.28;;;3.25;;
71253;SDS011;59019;47.638;18.966;2023-03-01T16:30:51;10.85;;;4.00;;
71253;SDS011;59019;47.638;18.966;2023-03-01T16:33:17;8.27;;;4.23;;
71253;SDS011;59019;47.638;18.966;2023-03-01T16:35:42;8.50;;;3.85;;
71253;SDS011;59019;47.638;18.966;2023-03-01T16:38:09;12.90;;;5.00;;
71253;SDS011;59019;47.638;18.966;2023-03-01T16:40:36;9.82;;;5.05;;
71253;SDS011;59019;47.638;18.966;2023-03-01T16:43:02;13.27;;;6.45;;
71253;SDS011;59019;47.638;18.966;2023-03-01T16:45:28;12.27;;;6.60;;
71253;SDS011;59019;47.638;18.966;2023-03-01T16:47:59;11.93;;;5.80;;
71253;SDS011;59019;47.638;18.966;2023-03-01T16:50:24;10.30;;;5.47;;
71253;SDS011;59019;47.638;18.966;2023-03-01T16:52:50;15.70;;;5.17;;
71253;SDS011;59019;47.638;18.966;2023-03-01T16:55:16;10.60;;;4.63;;
71253;SDS011;59019;47.638;18.966;2023-03-01T16:57:41;13.07;;;4.70;;
71253;SDS011;59019;47.638;18.966;2023-03-01T17:00:07;14.43;;;8.05;;